Nearby METAR Reports

 

KFNL - Ft Collins/Love, Colorado, USA
Distance from station: NW 10mi, 16km
Updated: Mon, 24-Feb-2020 2:56am MST
Clear
Clear
 Wind from calm
Wind: Calm
Temperature: 25°F , -4°C
Dew Point: 23°F , -5°C
Humidity: 93%
Barometer: 29.80 inHg , 1009.1 hPa
Clouds: Clear
Visibility: 10 miles , 16 km
2020/02/24 09:56 KFNL 240956Z AUTO 00000KT 10SM CLR M04/M05 A2980 RMK AO2 SLP099 T10391050 FZRANO
KGXY - Greeley/Weld, Colorado, USA
Distance from station: ENE 14mi, 23km
Updated: Mon, 24-Feb-2020 2:56am MST
Clear
Clear
 Wind from SSE
Wind: SSE 3 mph , 6 km/h
Temperature: 21°F , -6°C
Dew Point: 18°F , -8°C
Humidity: 86%
Barometer: 29.82 inHg , 1009.8 hPa
Clouds: Clear
Visibility: 10 miles , 16 km
2020/02/24 09:56 KGXY 240956Z AUTO 15003KT 10SM CLR M06/M08 A2982 RMK AO2 SLP124 T10611078 FZRANO
 
KLMO - Longmont/Vbrand, Colorado, USA
Distance from station: SW 20mi, 33km
Updated: Mon, 24-Feb-2020 3:15am MST
Clear
Clear
 Wind from calm
Wind: Calm
Temperature: 27°F , -3°C
Dew Point: 21°F , -6°C
Humidity: 80%
Barometer: 29.81 inHg , 1009.5 hPa
Clouds: Clear
Visibility: 7 miles , 11 km
2020/02/24 10:15 KLMO 241015Z AUTO 00000KT 7SM CLR M03/M06 A2981 RMK AO2 T10271061
KEIK - Erie Muni, Colorado, USA
Distance from station: SSW 25mi, 40km
Updated: Mon, 24-Feb-2020 3:24am MST
Clear
Clear
 Wind from SE
Wind: SE 6 mph , 9 km/h
Temperature: 27°F , -3°C
Wind Chill: 20°F , -7°C
Dew Point: 23°F , -5°C
Humidity: 86%
Barometer: 29.84 inHg , 1010.5 hPa
Clouds: Clear
Visibility: 10 miles , 16 km
2020/02/24 10:24 KEIK 241024Z AUTO 14005KT 10SM CLR M03/M05 A2984 RMK AO2 T10341047
 
KBDU - Boulder Muni, Colorado, USA
Distance from station: SW 29mi, 47km
Updated: Mon, 24-Feb-2020 3:12am MST
Clear
Clear
 Wind from WSW
Wind: WSW 6 mph , 9 km/h
Temperature: 37°F , 3°C
Wind Chill: 32°F , 0°C
Dew Point: 16°F , -9°C
Humidity: 41%
Barometer: 29.78 inHg , 1008.5 hPa
Clouds: Clear
Visibility: 10 miles , 16 km
2020/02/24 10:12 KBDU 241012Z AUTO 24005KT 10SM CLR 03/M09 A2978 RMK AO2
KBJC - Broomfield/Jeffc, Colorado, USA
Distance from station: SSW 34mi, 54km
Updated: Mon, 24-Feb-2020 3:12am MST
Clear
Clear
 Wind from NNE
Wind: NNE 5 mph , 7 km/h
Temperature: 41°F , 5°C
Wind Chill: 38°F , 3°C
Dew Point: 12°F , -11°C
Humidity: 31%
Barometer: 29.79 inHg , 1008.8 hPa
Clouds: Clear
Visibility: 10 miles , 16 km
2020/02/24 10:12 KBJC 241012Z AUTO 03004KT 10SM CLR 05/M11 A2979 RMK AO2
 
KDEN - Denver (dia), Colorado, USA
Distance from station: SSE 37mi, 59km
Updated: Mon, 24-Feb-2020 2:53am MST
Few Clouds
Few Clouds
 Wind from SW
Wind: SW 12 mph , 19 km/h
Temperature: 34°F , 1°C
Wind Chill: 25°F , -4°C
Dew Point: 19°F , -7°C
Humidity: 56%
Barometer: 29.79 inHg , 1008.8 hPa
Clouds: Few Clouds
Visibility: 10 miles , 16 km
Cloud details: Few Clouds 16000 ft
2020/02/24 09:53 KDEN 240953Z 22010KT 10SM FEW160 01/M07 A2979 RMK AO2 SLP082 T00061067
KFTG - Denver F. Range, Colorado, USA
Distance from station: SSE 43mi, 69km
Updated: Wed, 29-Jan-2020 9:55pm MST
NOT Current
Overcast
Overcast
 Wind from W
Wind: W 7 mph , 11 km/h
Temperature: 30°F , -1°C
Wind Chill: 23°F , -5°C
Dew Point: 28°F , -2°C
Humidity: 93%
Barometer: 30.06 inHg , 1017.9 hPa
Clouds: Overcast
Visibility: 10 miles , 16 km
Cloud details: Partly cloudy 1300 ft
Mostly cloudy 2300 ft
Overcast 6000 ft
2020/01/30 04:55 KFTG 300455Z AUTO 26006KT 10SM SCT013 BKN023 OVC060 M01/M02 A3006 RMK AO2 T10111023
 
KBKF - Buckley Angb/Den, Colorado, USA
Distance from station: S 44mi, 72km
Updated: Mon, 24-Feb-2020 2:58am MST
Clear
Clear
 Wind from SSW
Wind: SSW 5 mph , 7 km/h
Temperature: 30°F , -1°C
Wind Chill: 25°F , -4°C
Dew Point: 18°F , -8°C
Humidity: 59%
Barometer: 29.80 inHg , 1009.1 hPa
Clouds: Clear
Visibility: 10 miles , 16 km
2020/02/24 09:58 KBKF 240958Z 20004KT 10SM CLR M01/M08 A2980 RMK AO2A SLP094 T10061083
KCAG - Craig, Colorado, USA
Distance from station: ESE 227mi, 365km
Updated: Mon, 24-Feb-2020 2:53am MST
Overcast
Overcast
 Wind from calm
Wind: Calm
Temperature: 5°F , -15°C
Dew Point: 1°F , -17°C
Humidity: 85%
Barometer: 29.96 inHg , 1014.6 hPa
Clouds: Overcast
Visibility: 10 miles , 16 km
Cloud details: Overcast 9000 ft
2020/02/24 09:53 KCAG 240953Z AUTO 00000KT 10SM OVC090 M15/M17 A2996 RMK AO2 SLP203 T11501172
 
KHDN - Hayden/Yampa, Colorado, USA
Distance from station: E 211mi, 339km
Updated: Mon, 24-Feb-2020 2:56am MST
Overcast
Overcast
 Wind from E
Wind: E 10 mph , 17 km/h
Temperature: 14°F , -10°C
Wind Chill: 1°F , -17°C
Dew Point: 10°F , -12°C
Humidity: 85%
Barometer: 29.96 inHg , 1014.6 hPa
Clouds: Overcast
Visibility: 10 miles , 16 km
Cloud details: Overcast 9000 ft
2020/02/24 09:56 KHDN 240956Z AUTO 10009KT 10SM OVC090 M10/M12 A2996 RMK AO2 SLP182 T11001117 FZRANO
KSBS - Steamboat Spring, Colorado, USA
Distance from station: E 186mi, 299km
Updated: Mon, 24-Feb-2020 3:15am MST
Overcast
Overcast
 Wind from calm
Wind: Calm
Temperature: 12°F , -11°C
Dew Point: 10°F , -12°C
Humidity: 92%
Barometer: 29.92 inHg , 1013.2 hPa
Clouds: Overcast
Visibility: 10 miles , 16 km
Cloud details: Overcast 6500 ft
2020/02/24 10:15 KSBS 241015Z AUTO 00000KT 10SM OVC065 M11/M12 A2992 RMK AO1 T11121116
 
KDWX - Dixon, Wyoming, USA
Distance from station: N 278mi, 447km
Updated: Mon, 24-Feb-2020 3:15am MST
Partly cloudy
Partly cloudy
 Wind from SSW
Wind: SSW 9 mph , 15 km/h, Gust: 16 mph , 26 km/h
Temperature: 25°F , -4°C
Wind Chill: 16°F , -9°C
Dew Point: 14°F , -10°C
Humidity: 63%
Barometer: 29.90 inHg , 1012.5 hPa
Clouds: Partly cloudy
Visibility: 10 miles , 16 km
Cloud details: Partly cloudy 7500 ft
Partly cloudy 10000 ft
2020/02/24 10:15 KDWX 241015Z AUTO 20008G14KT 160V290 10SM SCT075 SCT100 M04/M10 A2990 RMK AO2 T10441098
KEEO - Meeker, Colorado, USA
Distance from station: SSW 269mi, 433km
Updated: Mon, 24-Feb-2020 2:53am MST
Clear
Clear
 Wind from calm
Wind: Calm
Temperature: 10°F , -12°C
Dew Point: 7°F , -14°C
Humidity: 85%
Barometer: 29.96 inHg , 1014.6 hPa
Clouds: Clear
Visibility: 10 miles , 16 km
2020/02/24 09:53 KEEO 240953Z AUTO 00000KT 10SM CLR M12/M14 A2996 RMK AO2 SLP180 T11171139 TSNO $